sensor_id;sensor_type;location;lat;lon;timestamp;pressure;altitude;pressure_sealevel;temperature;humidity
61554;BME280;47425;51.976;5.326;2023-07-28T00:02:10;100337.69;;;20.78;66.62
61554;BME280;47425;51.976;5.326;2023-07-28T00:04:39;100335.88;;;20.79;66.93
61554;BME280;47425;51.976;5.326;2023-07-28T00:07:05;100339.91;;;20.85;65.96
61554;BME280;47425;51.976;5.326;2023-07-28T00:09:33;100337.56;;;20.80;67.64
61554;BME280;47425;51.976;5.326;2023-07-28T00:12:00;100340.69;;;20.74;67.54
61554;BME280;47425;51.976;5.326;2023-07-28T00:14:29;100344.06;;;20.76;66.56
61554;BME280;47425;51.976;5.326;2023-07-28T00:16:57;100346.84;;;20.74;67.19
61554;BME280;47425;51.976;5.326;2023-07-28T00:19:27;100340.47;;;20.77;66.87
61554;BME280;47425;51.976;5.326;2023-07-28T00:21:57;100336.84;;;20.78;66.37
61554;BME280;47425;51.976;5.326;2023-07-28T00:24:24;100335.25;;;20.75;67.09
61554;BME280;47425;51.976;5.326;2023-07-28T00:26:49;100341.31;;;20.77;67.37
61554;BME280;47425;51.976;5.326;2023-07-28T00:29:20;100331.00;;;20.73;67.29
61554;BME280;47425;51.976;5.326;2023-07-28T00:31:47;100327.69;;;20.69;67.34
61554;BME280;47425;51.976;5.326;2023-07-28T00:34:22;100330.28;;;20.71;67.19
61554;BME280;47425;51.976;5.326;2023-07-28T00:36:50;100332.34;;;20.78;66.44
61554;BME280;47425;51.976;5.326;2023-07-28T00:39:18;100328.50;;;20.83;66.54
61554;BME280;47425;51.976;5.326;2023-07-28T00:41:45;100334.72;;;20.83;66.83
61554;BME280;47425;51.976;5.326;2023-07-28T00:44:11;100333.22;;;20.79;67.26
61554;BME280;47425;51.976;5.326;2023-07-28T00:46:41;100334.06;;;20.79;66.37
61554;BME280;47425;51.976;5.326;2023-07-28T00:49:08;100324.91;;;20.84;66.14
61554;BME280;47425;51.976;5.326;2023-07-28T00:51:38;100325.97;;;20.81;66.26
61554;BME280;47425;51.976;5.326;2023-07-28T00:54:08;100326.25;;;20.89;66.03
61554;BME280;47425;51.976;5.326;2023-07-28T00:56:36;100323.00;;;20.73;67.30
61554;BME280;47425;51.976;5.326;2023-07-28T00:59:08;100328.66;;;20.68;67.53
61554;BME280;47425;51.976;5.326;2023-07-28T01:01:34;100329.94;;;20.75;66.34
61554;BME280;47425;51.976;5.326;2023-07-28T01:04:04;100331.50;;;20.91;66.06
61554;BME280;47425;51.976;5.326;2023-07-28T01:06:44;100335.63;;;20.95;66.77
61554;BME280;47425;51.976;5.326;2023-07-28T01:09:19;100330.97;;;20.86;66.50
61554;BME280;47425;51.976;5.326;2023-07-28T01:11:55;100336.72;;;20.79;67.48
61554;BME280;47425;51.976;5.326;2023-07-28T01:14:23;100344.06;;;20.76;67.62
61554;BME280;47425;51.976;5.326;2023-07-28T01:16:50;100345.56;;;20.67;67.41
61554;BME280;47425;51.976;5.326;2023-07-28T01:19:21;100338.88;;;20.61;68.07
61554;BME280;47425;51.976;5.326;2023-07-28T01:22:11;100335.56;;;20.58;68.16
61554;BME280;47425;51.976;5.326;2023-07-28T01:24:56;100340.53;;;20.62;67.41
61554;BME280;47425;51.976;5.326;2023-07-28T01:27:32;100336.53;;;20.70;67.21
61554;BME280;47425;51.976;5.326;2023-07-28T01:30:15;100342.03;;;20.67;67.62
61554;BME280;47425;51.976;5.326;2023-07-28T01:32:43;100345.56;;;20.67;67.33
61554;BME280;47425;51.976;5.326;2023-07-28T01:35:11;100349.72;;;20.71;66.41
61554;BME280;47425;51.976;5.326;2023-07-28T01:37:42;100332.94;;;20.71;67.09
61554;BME280;47425;51.976;5.326;2023-07-28T01:40:11;100342.28;;;20.76;67.07
61554;BME280;47425;51.976;5.326;2023-07-28T01:42:39;100340.03;;;20.70;67.21
61554;BME280;47425;51.976;5.326;2023-07-28T01:45:10;100335.88;;;20.66;67.30
61554;BME280;47425;51.976;5.326;2023-07-28T01:47:41;100338.53;;;20.66;67.97
61554;BME280;47425;51.976;5.326;2023-07-28T01:50:08;100338.56;;;20.53;68.33
61554;BME280;47425;51.976;5.326;2023-07-28T01:52:35;100344.59;;;20.55;67.78
61554;BME280;47425;51.976;5.326;2023-07-28T01:55:07;100343.84;;;20.66;66.97
61554;BME280;47425;51.976;5.326;2023-07-28T01:57:49;100345.88;;;20.75;67.25
61554;BME280;47425;51.976;5.326;2023-07-28T02:00:17;100343.13;;;20.77;67.14
61554;BME280;47425;51.976;5.326;2023-07-28T02:02:46;100345.13;;;20.73;66.77
61554;BME280;47425;51.976;5.326;2023-07-28T02:05:14;100334.72;;;20.70;67.48
61554;BME280;47425;51.976;5.326;2023-07-28T02:07:48;100341.53;;;20.74;66.70
61554;BME280;47425;51.976;5.326;2023-07-28T02:10:14;100342.16;;;20.78;67.07
61554;BME280;47425;51.976;5.326;2023-07-28T02:12:47;100340.03;;;20.70;67.30
61554;BME280;47425;51.976;5.326;2023-07-28T02:15:17;100337.81;;;20.64;67.30
61554;BME280;47425;51.976;5.326;2023-07-28T02:17:45;100337.50;;;20.69;67.37
61554;BME280;47425;51.976;5.326;2023-07-28T02:20:19;100341.06;;;20.68;67.00
61554;BME280;47425;51.976;5.326;2023-07-28T02:22:46;100343.75;;;20.68;67.68
61554;BME280;47425;51.976;5.326;2023-07-28T02:25:14;100334.72;;;20.70;66.75
61554;BME280;47425;51.976;5.326;2023-07-28T02:27:40;100337.91;;;20.75;67.12
61554;BME280;47425;51.976;5.326;2023-07-28T02:30:09;100334.28;;;20.76;67.48
61554;BME280;47425;51.976;5.326;2023-07-28T02:32:36;100341.94;;;20.81;66.98
61554;BME280;47425;51.976;5.326;2023-07-28T02:35:05;100337.38;;;20.70;67.86
61554;BME280;47425;51.976;5.326;2023-07-28T02:37:34;100336.09;;;20.63;67.00
61554;BME280;47425;51.976;5.326;2023-07-28T02:40:01;100321.63;;;20.54;67.81
61554;BME280;47425;51.976;5.326;2023-07-28T02:42:30;100333.31;;;20.65;67.98
61554;BME280;47425;51.976;5.326;2023-07-28T02:45:00;100338.41;;;20.68;67.16
61554;BME280;47425;51.976;5.326;2023-07-28T02:47:30;100338.34;;;20.69;68.21
61554;BME280;47425;51.976;5.326;2023-07-28T02:49:59;100343.84;;;20.66;67.41
61554;BME280;47425;51.976;5.326;2023-07-28T02:52:30;100342.81;;;20.69;67.41
61554;BME280;47425;51.976;5.326;2023-07-28T02:54:58;100340.78;;;20.72;67.89
61554;BME280;47425;51.976;5.326;2023-07-28T02:57:26;100343.34;;;20.74;67.42
61554;BME280;47425;51.976;5.326;2023-07-28T02:59:53;100349.50;;;20.74;66.69
61554;BME280;47425;51.976;5.326;2023-07-28T03:02:21;100350.69;;;20.83;66.48
61554;BME280;47425;51.976;5.326;2023-07-28T03:04:50;100354.34;;;20.93;67.11
61554;BME280;47425;51.976;5.326;2023-07-28T03:07:24;100354.28;;;20.95;66.30
61554;BME280;47425;51.976;5.326;2023-07-28T03:10:01;100362.47;;;20.92;66.54
61554;BME280;47425;51.976;5.326;2023-07-28T03:12:32;100365.34;;;20.89;66.26
61554;BME280;47425;51.976;5.326;2023-07-28T03:15:03;100362.91;;;20.86;67.17
61554;BME280;47425;51.976;5.326;2023-07-28T03:17:34;100364.09;;;20.82;66.01
61554;BME280;47425;51.976;5.326;2023-07-28T03:20:05;100364.91;;;20.95;65.22
61554;BME280;47425;51.976;5.326;2023-07-28T03:22:33;100370.25;;;20.95;66.34
61554;BME280;47425;51.976;5.326;2023-07-28T03:25:00;100373.84;;;20.94;66.80
61554;BME280;47425;51.976;5.326;2023-07-28T03:27:28;100373.16;;;20.79;67.37
61554;BME280;47425;51.976;5.326;2023-07-28T03:30:04;100380.06;;;20.82;67.38
61554;BME280;47425;51.976;5.326;2023-07-28T03:32:33;100370.59;;;20.77;66.65
61554;BME280;47425;51.976;5.326;2023-07-28T03:35:00;100380.25;;;20.78;67.66
61554;BME280;47425;51.976;5.326;2023-07-28T03:37:32;100373.75;;;20.83;66.14
61554;BME280;47425;51.976;5.326;2023-07-28T03:40:01;100376.53;;;20.94;66.29
61554;BME280;47425;51.976;5.326;2023-07-28T03:42:40;100375.75;;;20.92;67.27
61554;BME280;47425;51.976;5.326;2023-07-28T03:45:08;100369.72;;;20.90;66.56
61554;BME280;47425;51.976;5.326;2023-07-28T03:47:35;100383.56;;;20.95;66.46
61554;BME280;47425;51.976;5.326;2023-07-28T03:50:07;100390.25;;;20.88;67.30
61554;BME280;47425;51.976;5.326;2023-07-28T03:52:37;100380.91;;;20.82;67.10
61554;BME280;47425;51.976;5.326;2023-07-28T03:55:04;100384.09;;;20.87;67.49
61554;BME280;47425;51.976;5.326;2023-07-28T03:57:34;100375.34;;;20.85;66.57
61554;BME280;47425;51.976;5.326;2023-07-28T04:00:03;100376.09;;;20.87;66.14
61554;BME280;47425;51.976;5.326;2023-07-28T04:02:40;100381.84;;;20.94;66.63
61554;BME280;47425;51.976;5.326;2023-07-28T04:05:28;100384.69;;;21.04;65.08
61554;BME280;47425;51.976;5.326;2023-07-28T04:07:56;100387.34;;;21.04;65.55
61554;BME280;47425;51.976;5.326;2023-07-28T04:10:26;100387.88;;;21.09;66.42
61554;BME280;47425;51.976;5.326;2023-07-28T04:12:52;100385.88;;;21.00;67.41
61554;BME280;47425;51.976;5.326;2023-07-28T04:15:19;100385.34;;;20.94;66.52
61554;BME280;47425;51.976;5.326;2023-07-28T04:17:48;100377.25;;;20.96;66.62
61554;BME280;47425;51.976;5.326;2023-07-28T04:20:20;100384.28;;;20.97;65.61
61554;BME280;47425;51.976;5.326;2023-07-28T04:22:49;100383.09;;;21.01;65.70
61554;BME280;47425;51.976;5.326;2023-07-28T04:25:20;100382.13;;;21.02;66.44
61554;BME280;47425;51.976;5.326;2023-07-28T04:27:48;100388.66;;;20.98;67.08
61554;BME280;47425;51.976;5.326;2023-07-28T04:30:16;100389.78;;;21.07;65.93
61554;BME280;47425;51.976;5.326;2023-07-28T04:32:45;100387.66;;;21.12;65.54
61554;BME280;47425;51.976;5.326;2023-07-28T04:35:18;100402.66;;;21.13;65.51
61554;BME280;47425;51.976;5.326;2023-07-28T04:38:02;100400.44;;;21.07;66.52
61554;BME280;47425;51.976;5.326;2023-07-28T04:40:50;100395.97;;;21.07;65.72
61554;BME280;47425;51.976;5.326;2023-07-28T04:43:23;100403.50;;;21.13;65.91
61554;BME280;47425;51.976;5.326;2023-07-28T04:46:04;100394.78;;;21.11;64.25
61554;BME280;47425;51.976;5.326;2023-07-28T04:48:32;100403.19;;;21.18;64.89
61554;BME280;47425;51.976;5.326;2023-07-28T04:51:03;100407.34;;;21.22;65.26
61554;BME280;47425;51.976;5.326;2023-07-28T04:53:54;100417.03;;;21.23;65.04
61554;BME280;47425;51.976;5.326;2023-07-28T04:56:26;100411.91;;;21.20;65.57
61554;BME280;47425;51.976;5.326;2023-07-28T04:59:07;100418.28;;;21.18;65.82
61554;BME280;47425;51.976;5.326;2023-07-28T05:01:35;100418.75;;;21.11;66.69
61554;BME280;47425;51.976;5.326;2023-07-28T05:04:03;100409.00;;;20.99;66.64
61554;BME280;47425;51.976;5.326;2023-07-28T05:06:30;100406.09;;;21.02;66.98
61554;BME280;47425;51.976;5.326;2023-07-28T05:09:19;100413.84;;;21.05;66.50
61554;BME280;47425;51.976;5.326;2023-07-28T05:11:49;100411.75;;;20.98;67.41
61554;BME280;47425;51.976;5.326;2023-07-28T05:14:16;100415.56;;;21.06;66.01
61554;BME280;47425;51.976;5.326;2023-07-28T05:16:43;100415.34;;;21.09;66.48
61554;BME280;47425;51.976;5.326;2023-07-28T05:19:11;100419.59;;;21.12;66.18
61554;BME280;47425;51.976;5.326;2023-07-28T05:21:58;100417.69;;;21.14;66.33
61554;BME280;47425;51.976;5.326;2023-07-28T05:24:37;100418.41;;;21.16;66.07
61554;BME280;47425;51.976;5.326;2023-07-28T05:27:08;100422.25;;;21.12;65.16
61554;BME280;47425;51.976;5.326;2023-07-28T05:29:37;100419.81;;;21.09;67.12
61554;BME280;47425;51.976;5.326;2023-07-28T05:32:06;100417.03;;;21.10;67.57
61554;BME280;47425;51.976;5.326;2023-07-28T05:35:01;100417.91;;;21.11;66.77
61554;BME280;47425;51.976;5.326;2023-07-28T05:37:28;100421.19;;;21.15;66.73
61554;BME280;47425;51.976;5.326;2023-07-28T05:39:58;100425.16;;;21.09;67.26
61554;BME280;47425;51.976;5.326;2023-07-28T05:42:27;100429.41;;;21.11;66.13
61554;BME280;47425;51.976;5.326;2023-07-28T05:44:57;100435.47;;;21.13;66.47
61554;BME280;47425;51.976;5.326;2023-07-28T05:47:23;100427.28;;;21.17;65.97
61554;BME280;47425;51.976;5.326;2023-07-28T05:49:51;100432.13;;;21.23;65.94
61554;BME280;47425;51.976;5.326;2023-07-28T05:52:21;100432.13;;;21.36;65.06
61554;BME280;47425;51.976;5.326;2023-07-28T05:54:48;100443.41;;;21.39;65.70
61554;BME280;47425;51.976;5.326;2023-07-28T05:57:17;100442.25;;;21.31;65.60
61554;BME280;47425;51.976;5.326;2023-07-28T05:59:46;100439.59;;;21.31;66.59
61554;BME280;47425;51.976;5.326;2023-07-28T06:02:15;100451.00;;;21.33;65.56
61554;BME280;47425;51.976;5.326;2023-07-28T06:04:47;100445.19;;;21.39;65.65
61554;BME280;47425;51.976;5.326;2023-07-28T06:07:15;100451.06;;;21.44;65.82
61554;BME280;47425;51.976;5.326;2023-07-28T06:09:42;100450.41;;;21.40;64.24
61554;BME280;47425;51.976;5.326;2023-07-28T06:12:09;100450.66;;;21.37;65.61
61554;BME280;47425;51.976;5.326;2023-07-28T06:14:36;100452.91;;;21.31;66.83
61554;BME280;47425;51.976;5.326;2023-07-28T06:17:07;100452.25;;;21.27;66.22
61554;BME280;47425;51.976;5.326;2023-07-28T06:19:35;100457.81;;;21.24;66.07
61554;BME280;47425;51.976;5.326;2023-07-28T06:22:05;100464.19;;;21.34;65.30
61554;BME280;47425;51.976;5.326;2023-07-28T06:24:41;100461.72;;;21.44;65.07
61554;BME280;47425;51.976;5.326;2023-07-28T06:27:09;100462.78;;;21.54;64.96
61554;BME280;47425;51.976;5.326;2023-07-28T06:29:39;100472.13;;;21.60;65.02
61554;BME280;47425;51.976;5.326;2023-07-28T06:32:10;100476.72;;;21.58;65.44
61554;BME280;47425;51.976;5.326;2023-07-28T06:34:38;100478.41;;;21.59;65.18
61554;BME280;47425;51.976;5.326;2023-07-28T06:37:05;100482.16;;;21.56;65.78
61554;BME280;47425;51.976;5.326;2023-07-28T06:39:32;100483.31;;;21.65;63.38
61554;BME280;47425;51.976;5.326;2023-07-28T06:42:02;100488.38;;;21.81;62.96
61554;BME280;47425;51.976;5.326;2023-07-28T06:44:36;100490.81;;;21.84;62.56
61554;BME280;47425;51.976;5.326;2023-07-28T06:47:04;100496.66;;;21.89;64.52
61554;BME280;47425;51.976;5.326;2023-07-28T06:49:33;100493.25;;;21.87;62.68
61554;BME280;47425;51.976;5.326;2023-07-28T06:52:03;100493.25;;;21.87;62.07
61554;BME280;47425;51.976;5.326;2023-07-28T06:54:31;100488.81;;;21.99;62.06
61554;BME280;47425;51.976;5.326;2023-07-28T06:57:01;100498.94;;;22.07;62.39
61554;BME280;47425;51.976;5.326;2023-07-28T06:59:31;100502.09;;;22.12;62.14
61554;BME280;47425;51.976;5.326;2023-07-28T07:01:58;100499.84;;;22.19;61.74
61554;BME280;47425;51.976;5.326;2023-07-28T07:04:28;100504.88;;;22.10;63.40
61554;BME280;47425;51.976;5.326;2023-07-28T07:06:56;100508.97;;;22.03;63.72
61554;BME280;47425;51.976;5.326;2023-07-28T07:09:23;100521.69;;;22.00;63.02
61554;BME280;47425;51.976;5.326;2023-07-28T07:12:10;100519.88;;;22.00;63.90
61554;BME280;47425;51.976;5.326;2023-07-28T07:14:36;100524.28;;;21.88;63.73
61554;BME280;47425;51.976;5.326;2023-07-28T07:17:04;100510.22;;;21.86;62.93
61554;BME280;47425;51.976;5.326;2023-07-28T07:19:30;100512.09;;;21.97;61.80
61554;BME280;47425;51.976;5.326;2023-07-28T07:22:00;100514.13;;;22.18;61.36
61554;BME280;47425;51.976;5.326;2023-07-28T07:24:27;100519.16;;;22.34;61.04
61554;BME280;47425;51.976;5.326;2023-07-28T07:26:54;100528.31;;;22.42;60.15
61554;BME280;47425;51.976;5.326;2023-07-28T07:29:20;100522.16;;;22.53;60.56
61554;BME280;47425;51.976;5.326;2023-07-28T07:31:48;100533.19;;;22.49;59.98
61554;BME280;47425;51.976;5.326;2023-07-28T07:34:21;100522.53;;;22.49;60.07
61554;BME280;47425;51.976;5.326;2023-07-28T07:39:18;100545.25;;;22.66;59.43
61554;BME280;47425;51.976;5.326;2023-07-28T07:41:46;100541.91;;;22.75;59.86
61554;BME280;47425;51.976;5.326;2023-07-28T07:44:27;100544.63;;;22.62;59.93
61554;BME280;47425;51.976;5.326;2023-07-28T07:46:54;100542.81;;;22.62;59.87
61554;BME280;47425;51.976;5.326;2023-07-28T07:49:21;100544.41;;;22.65;59.07
61554;BME280;47425;51.976;5.326;2023-07-28T07:51:50;100547.13;;;22.76;58.93
61554;BME280;47425;51.976;5.326;2023-07-28T07:54:20;100550.28;;;22.82;58.82
61554;BME280;47425;51.976;5.326;2023-07-28T07:56:46;100549.28;;;22.83;58.35
61554;BME280;47425;51.976;5.326;2023-07-28T07:59:14;100540.78;;;22.77;60.48
61554;BME280;47425;51.976;5.326;2023-07-28T08:01:41;100548.94;;;22.87;58.51
61554;BME280;47425;51.976;5.326;2023-07-28T08:04:08;100547.88;;;22.90;60.68
61554;BME280;47425;51.976;5.326;2023-07-28T08:06:35;100557.69;;;22.89;59.19
61554;BME280;47425;51.976;5.326;2023-07-28T08:09:03;100567.06;;;22.95;58.44
61554;BME280;47425;51.976;5.326;2023-07-28T08:11:31;100564.41;;;23.06;57.84
61554;BME280;47425;51.976;5.326;2023-07-28T08:13:58;100561.16;;;23.14;58.96
61554;BME280;47425;51.976;5.326;2023-07-28T08:16:24;100568.09;;;23.17;57.81
61554;BME280;47425;51.976;5.326;2023-07-28T08:18:52;100562.50;;;23.20;58.91
61554;BME280;47425;51.976;5.326;2023-07-28T08:21:19;100571.19;;;23.10;59.43
61554;BME280;47425;51.976;5.326;2023-07-28T08:23:46;100568.91;;;23.06;58.66
61554;BME280;47425;51.976;5.326;2023-07-28T08:26:15;100567.56;;;23.11;59.71
61554;BME280;47425;51.976;5.326;2023-07-28T08:28:43;100570.75;;;23.17;58.92
61554;BME280;47425;51.976;5.326;2023-07-28T08:31:10;100569.06;;;23.16;58.19
61554;BME280;47425;51.976;5.326;2023-07-28T08:33:39;100576.56;;;23.22;57.80
61554;BME280;47425;51.976;5.326;2023-07-28T08:36:07;100585.09;;;23.27;59.02
61554;BME280;47425;51.976;5.326;2023-07-28T08:38:41;100582.19;;;23.30;57.18
61554;BME280;47425;51.976;5.326;2023-07-28T08:41:10;100582.56;;;23.37;57.17
61554;BME280;47425;51.976;5.326;2023-07-28T08:43:40;100586.91;;;23.26;58.98
61554;BME280;47425;51.976;5.326;2023-07-28T08:46:15;100585.22;;;23.14;60.32
61554;BME280;47425;51.976;5.326;2023-07-28T08:48:46;100588.94;;;23.11;60.36
61554;BME280;47425;51.976;5.326;2023-07-28T08:51:14;100580.47;;;23.18;59.25
61554;BME280;47425;51.976;5.326;2023-07-28T08:53:41;100584.63;;;23.33;59.27
61554;BME280;47425;51.976;5.326;2023-07-28T08:56:11;100575.84;;;23.54;59.18
61554;BME280;47425;51.976;5.326;2023-07-28T08:58:38;100582.31;;;23.62;57.27
61554;BME280;47425;51.976;5.326;2023-07-28T09:01:05;100586.28;;;23.79;58.31
61554;BME280;47425;51.976;5.326;2023-07-28T09:03:34;100583.97;;;23.86;57.21
61554;BME280;47425;51.976;5.326;2023-07-28T09:06:07;100586.81;;;23.96;57.80
61554;BME280;47425;51.976;5.326;2023-07-28T09:08:35;100577.28;;;24.03;56.76
61554;BME280;47425;51.976;5.326;2023-07-28T09:11:03;100577.63;;;24.10;56.50
61554;BME280;47425;51.976;5.326;2023-07-28T09:13:36;100570.34;;;24.12;56.86
61554;BME280;47425;51.976;5.326;2023-07-28T09:16:16;100575.06;;;24.20;56.10
61554;BME280;47425;51.976;5.326;2023-07-28T09:18:45;100573.59;;;24.16;56.73
61554;BME280;47425;51.976;5.326;2023-07-28T09:21:16;100578.25;;;24.13;57.08
61554;BME280;47425;51.976;5.326;2023-07-28T09:23:44;100580.06;;;24.13;57.23
61554;BME280;47425;51.976;5.326;2023-07-28T09:26:18;100576.81;;;24.09;57.41
61554;BME280;47425;51.976;5.326;2023-07-28T09:28:48;100585.94;;;24.07;56.89
61554;BME280;47425;51.976;5.326;2023-07-28T09:31:15;100581.84;;;24.24;56.26
61554;BME280;47425;51.976;5.326;2023-07-28T09:33:46;100581.97;;;24.22;55.83
61554;BME280;47425;51.976;5.326;2023-07-28T09:36:18;100587.66;;;24.40;55.89
61554;BME280;47425;51.976;5.326;2023-07-28T09:38:50;100584.22;;;24.50;56.94
61554;BME280;47425;51.976;5.326;2023-07-28T09:41:17;100592.81;;;24.65;56.40
61554;BME280;47425;51.976;5.326;2023-07-28T09:43:47;100585.34;;;24.68;57.31
61554;BME280;47425;51.976;5.326;2023-07-28T09:46:17;100596.53;;;24.73;56.24
61554;BME280;47425;51.976;5.326;2023-07-28T09:48:48;100590.59;;;24.70;57.40
61554;BME280;47425;51.976;5.326;2023-07-28T09:51:22;100591.63;;;24.78;55.77
61554;BME280;47425;51.976;5.326;2023-07-28T09:53:58;100594.84;;;24.72;55.07
61554;BME280;47425;51.976;5.326;2023-07-28T09:56:28;100591.84;;;24.66;55.28
61554;BME280;47425;51.976;5.326;2023-07-28T09:58:56;100601.03;;;24.61;57.29
61554;BME280;47425;51.976;5.326;2023-07-28T10:01:25;100598.38;;;24.73;56.45
61554;BME280;47425;51.976;5.326;2023-07-28T10:03:55;100587.31;;;24.66;56.62
61554;BME280;47425;51.976;5.326;2023-07-28T10:06:24;100590.19;;;24.74;56.14
61554;BME280;47425;51.976;5.326;2023-07-28T10:08:53;100591.91;;;24.75;57.01
61554;BME280;47425;51.976;5.326;2023-07-28T10:11:22;100603.25;;;24.68;58.22
61554;BME280;47425;51.976;5.326;2023-07-28T10:13:51;100596.31;;;24.65;56.82
61554;BME280;47425;51.976;5.326;2023-07-28T10:16:17;100590.47;;;24.71;56.04
61554;BME280;47425;51.976;5.326;2023-07-28T10:18:52;100599.28;;;24.83;56.70
61554;BME280;47425;51.976;5.326;2023-07-28T10:21:22;100598.91;;;24.88;56.57
61554;BME280;47425;51.976;5.326;2023-07-28T10:23:58;100602.97;;;25.03;55.50
61554;BME280;47425;51.976;5.326;2023-07-28T10:26:35;100605.75;;;25.02;54.57
61554;BME280;47425;51.976;5.326;2023-07-28T10:29:24;100605.03;;;25.00;55.70
61554;BME280;47425;51.976;5.326;2023-07-28T10:31:54;100607.25;;;24.94;54.87
61554;BME280;47425;51.976;5.326;2023-07-28T10:34:22;100600.53;;;25.00;55.06
61554;BME280;47425;51.976;5.326;2023-07-28T10:37:01;100612.34;;;24.98;54.89
61554;BME280;47425;51.976;5.326;2023-07-28T10:39:38;100614.88;;;24.99;55.08
61554;BME280;47425;51.976;5.326;2023-07-28T10:42:07;100617.03;;;24.84;56.36
61554;BME280;47425;51.976;5.326;2023-07-28T10:44:35;100611.25;;;24.79;55.51
61554;BME280;47425;51.976;5.326;2023-07-28T10:47:09;100613.38;;;24.85;56.82
61554;BME280;47425;51.976;5.326;2023-07-28T10:49:40;100615.22;;;24.85;55.58
61554;BME280;47425;51.976;5.326;2023-07-28T10:52:11;100618.88;;;24.84;55.31
61554;BME280;47425;51.976;5.326;2023-07-28T10:54:41;100624.16;;;24.95;54.80
61554;BME280;47425;51.976;5.326;2023-07-28T10:57:11;100620.44;;;24.86;55.06
61554;BME280;47425;51.976;5.326;2023-07-28T10:59:39;100619.03;;;24.82;55.90
61554;BME280;47425;51.976;5.326;2023-07-28T11:02:06;100622.16;;;24.87;55.13
61554;BME280;47425;51.976;5.326;2023-07-28T11:04:33;100627.13;;;24.92;54.99
61554;BME280;47425;51.976;5.326;2023-07-28T11:07:02;100626.34;;;25.01;54.21
61554;BME280;47425;51.976;5.326;2023-07-28T11:09:31;100624.59;;;25.11;54.42
61554;BME280;47425;51.976;5.326;2023-07-28T11:11:58;100628.16;;;25.22;54.32
61554;BME280;47425;51.976;5.326;2023-07-28T11:14:26;100622.28;;;25.28;54.50
61554;BME280;47425;51.976;5.326;2023-07-28T11:16:56;100627.22;;;25.33;53.62
61554;BME280;47425;51.976;5.326;2023-07-28T11:19:23;100627.97;;;25.35;53.96
61554;BME280;47425;51.976;5.326;2023-07-28T11:21:50;100625.94;;;25.27;53.97
61554;BME280;47425;51.976;5.326;2023-07-28T11:24:19;100629.47;;;25.27;54.73
61554;BME280;47425;51.976;5.326;2023-07-28T11:26:49;100624.13;;;25.27;53.52
61554;BME280;47425;51.976;5.326;2023-07-28T11:29:18;100627.97;;;25.35;55.44
61554;BME280;47425;51.976;5.326;2023-07-28T11:31:47;100625.53;;;25.32;54.24
61554;BME280;47425;51.976;5.326;2023-07-28T11:34:20;100626.28;;;25.34;53.91
61554;BME280;47425;51.976;5.326;2023-07-28T11:36:48;100629.00;;;25.43;54.22
61554;BME280;47425;51.976;5.326;2023-07-28T11:39:16;100623.91;;;25.40;53.70
61554;BME280;47425;51.976;5.326;2023-07-28T11:41:46;100626.78;;;25.49;53.99
61554;BME280;47425;51.976;5.326;2023-07-28T11:44:15;100620.59;;;25.58;53.02
61554;BME280;47425;51.976;5.326;2023-07-28T11:46:43;100622.44;;;25.57;53.67
61554;BME280;47425;51.976;5.326;2023-07-28T11:49:11;100624.88;;;25.70;52.97
61554;BME280;47425;51.976;5.326;2023-07-28T11:51:42;100628.19;;;25.84;52.61
61554;BME280;47425;51.976;5.326;2023-07-28T11:54:12;100623.84;;;25.92;52.05
61554;BME280;47425;51.976;5.326;2023-07-28T11:56:41;100618.19;;;25.95;52.21
61554;BME280;47425;51.976;5.326;2023-07-28T11:59:11;100629.00;;;26.05;52.46
61554;BME280;47425;51.976;5.326;2023-07-28T12:01:53;100618.16;;;26.17;52.28
61554;BME280;47425;51.976;5.326;2023-07-28T12:04:22;100630.00;;;26.24;51.02
61554;BME280;47425;51.976;5.326;2023-07-28T12:07:03;100630.31;;;26.30;50.68
61554;BME280;47425;51.976;5.326;2023-07-28T12:09:31;100629.63;;;26.28;51.33
61554;BME280;47425;51.976;5.326;2023-07-28T12:11:58;100629.41;;;26.10;51.40
61554;BME280;47425;51.976;5.326;2023-07-28T12:14:33;100626.03;;;26.08;50.84
61554;BME280;47425;51.976;5.326;2023-07-28T12:17:12;100628.19;;;26.24;50.56
61554;BME280;47425;51.976;5.326;2023-07-28T12:19:41;100628.06;;;26.26;50.99
61554;BME280;47425;51.976;5.326;2023-07-28T12:22:11;100631.72;;;26.15;51.50
61554;BME280;47425;51.976;5.326;2023-07-28T12:24:42;100623.50;;;26.07;50.62
61554;BME280;47425;51.976;5.326;2023-07-28T12:27:10;100633.28;;;26.18;50.57
61554;BME280;47425;51.976;5.326;2023-07-28T12:29:38;100636.09;;;26.26;50.99
61554;BME280;47425;51.976;5.326;2023-07-28T12:32:05;100631.28;;;26.20;50.10
61554;BME280;47425;51.976;5.326;2023-07-28T12:34:35;100622.53;;;26.18;49.92
61554;BME280;47425;51.976;5.326;2023-07-28T12:37:01;100626.63;;;26.22;49.80
61554;BME280;47425;51.976;5.326;2023-07-28T12:39:28;100624.78;;;26.22;50.32
61554;BME280;47425;51.976;5.326;2023-07-28T12:41:58;100622.09;;;26.22;50.53
61554;BME280;47425;51.976;5.326;2023-07-28T12:44:24;100621.41;;;26.20;50.66
61554;BME280;47425;51.976;5.326;2023-07-28T12:46:51;100631.03;;;26.33;50.70
61554;BME280;47425;51.976;5.326;2023-07-28T12:49:18;100632.44;;;26.27;50.62
61554;BME280;47425;51.976;5.326;2023-07-28T12:51:50;100628.59;;;26.20;50.09
61554;BME280;47425;51.976;5.326;2023-07-28T12:54:18;100626.78;;;26.20;50.87
61554;BME280;47425;51.976;5.326;2023-07-28T12:56:49;100635.50;;;26.12;51.78
61554;BME280;47425;51.976;5.326;2023-07-28T12:59:18;100624.25;;;26.28;50.11
61554;BME280;47425;51.976;5.326;2023-07-28T13:01:46;100633.28;;;26.37;49.73
61554;BME280;47425;51.976;5.326;2023-07-28T13:04:13;100632.72;;;26.34;49.92
61554;BME280;47425;51.976;5.326;2023-07-28T13:06:40;100630.47;;;26.39;50.29
61554;BME280;47425;51.976;5.326;2023-07-28T13:09:11;100634.69;;;26.41;50.58